Time;durP1;ratioP1;P1;durP2;ratioP2;P2;SDS_P1;SDS_P2;PMS_P1;PMS_P2;Temp;Humidity;BMP_temperature;BMP_pressure;BME280_temperature;BME280_humidity;BME280_pressure;Samples;Min_cycle;Max_cycle;Signal;HPM_P1;HPM_P2
2022/03/15 00:02:03;;;;;;;24.90;11.20;;;5.80;99.90;;;;;;5048211;28;20048;-49
2022/03/15 00:04:29;;;;;;;24.80;10.95;;;5.80;99.90;;;;;;5047686;28;20087;-47
2022/03/15 00:06:56;;;;;;;22.58;11.23;;;5.70;99.90;;;;;;5048252;28;20049;-48
2022/03/15 00:09:22;;;;;;;26.23;11.93;;;5.80;99.90;;;;;;5049528;28;20044;-46
2022/03/15 00:11:48;;;;;;;26.42;12.60;;;5.80;99.90;;;;;;5049772;28;20033;-45
2022/03/15 00:14:14;;;;;;;22.65;11.55;;;5.80;99.90;;;;;;5048449;28;20052;-49
2022/03/15 00:16:42;;;;;;;31.75;11.75;;;5.70;99.90;;;;;;5048504;28;20044;-47
2022/03/15 00:19:08;;;;;;;25.65;11.95;;;5.70;99.90;;;;;;5047260;28;20044;-47
2022/03/15 00:21:34;;;;;;;25.27;11.88;;;5.70;99.90;;;;;;5046078;28;20037;-47
2022/03/15 00:24:04;;;;;;;29.23;12.70;;;5.70;99.90;;;;;;5049363;28;20392;-46
2022/03/15 00:26:29;;;;;;;27.63;12.20;;;5.70;99.90;;;;;;5048814;28;20462;-47
2022/03/15 00:28:55;;;;;;;31.10;13.93;;;5.80;99.90;;;;;;5051882;28;20041;-48
2022/03/15 00:31:21;;;;;;;32.42;13.68;;;5.90;99.90;;;;;;5053291;28;20087;-46
2022/03/15 00:33:46;;;;;;;30.80;13.75;;;6.00;99.90;;;;;;5053230;28;20029;-48
2022/03/15 00:36:12;;;;;;;28.55;13.77;;;5.90;99.90;;;;;;5051803;28;20029;-47
2022/03/15 00:38:41;;;;;;;32.25;14.85;;;6.10;99.90;;;;;;5053076;28;20526;-51
2022/03/15 00:41:08;;;;;;;32.10;13.80;;;6.00;99.90;;;;;;5050649;28;20053;-47
2022/03/15 00:43:34;;;;;;;31.20;14.25;;;6.20;99.90;;;;;;5051759;28;20123;-47
2022/03/15 00:46:00;;;;;;;32.13;15.05;;;6.10;99.90;;;;;;5053111;28;20170;-49
2022/03/15 00:48:26;;;;;;;34.47;15.07;;;6.30;99.90;;;;;;5051452;28;20672;-49
2022/03/15 00:50:52;;;;;;;31.77;14.85;;;6.30;99.90;;;;;;5052874;28;20045;-45
2022/03/15 00:53:18;;;;;;;35.67;16.00;;;6.30;99.90;;;;;;5052854;28;20511;-48
2022/03/15 00:55:44;;;;;;;35.67;15.73;;;6.20;99.90;;;;;;5052835;28;20037;-46
2022/03/15 00:58:10;;;;;;;35.83;16.20;;;6.20;99.90;;;;;;5052728;28;20492;-48
2022/03/15 01:00:36;;;;;;;32.60;15.65;;;6.30;99.90;;;;;;5051263;28;20041;-46
2022/03/15 01:03:03;;;;;;;30.92;16.05;;;6.50;99.90;;;;;;5033964;28;20127;-46
2022/03/15 01:05:30;;;;;;;33.60;16.70;;;6.30;99.90;;;;;;5049301;28;20485;-49
2022/03/15 01:07:56;;;;;;;38.45;17.15;;;6.30;99.90;;;;;;5051027;28;20048;-45
2022/03/15 01:10:21;;;;;;;31.75;16.35;;;6.40;99.90;;;;;;5052216;28;20052;-49
2022/03/15 01:12:47;;;;;;;36.80;16.25;;;6.50;99.90;;;;;;5052543;28;20121;-46
2022/03/15 01:15:13;;;;;;;33.08;16.42;;;6.50;99.90;;;;;;5051482;28;20032;-46
2022/03/15 01:17:38;;;;;;;34.25;17.05;;;6.50;99.90;;;;;;5052426;28;20037;-50
2022/03/15 01:20:06;;;;;;;39.20;16.90;;;6.40;99.90;;;;;;5051863;28;20471;-49
2022/03/15 01:22:32;;;;;;;31.73;16.35;;;6.60;99.90;;;;;;5051783;28;20113;-47
2022/03/15 01:24:58;;;;;;;37.85;17.45;;;6.50;99.90;;;;;;5049527;28;20510;-45
2022/03/15 01:27:23;;;;;;;33.30;17.67;;;6.50;99.90;;;;;;5050648;28;20037;-45
2022/03/15 01:29:49;;;;;;;33.75;17.48;;;6.40;99.90;;;;;;5047893;28;20047;-48
2022/03/15 01:32:16;;;;;;;36.97;18.85;;;6.40;99.90;;;;;;5051612;28;20044;-46
2022/03/15 01:34:42;;;;;;;37.22;18.75;;;6.40;99.90;;;;;;5051448;28;20424;-45
2022/03/15 01:37:08;;;;;;;36.00;17.70;;;6.50;99.90;;;;;;5052152;28;20040;-49
2022/03/15 01:39:33;;;;;;;35.47;18.60;;;6.40;99.90;;;;;;5050524;28;20057;-46
2022/03/15 01:42:00;;;;;;;37.55;18.80;;;6.30;99.90;;;;;;5051262;28;20045;-48
2022/03/15 01:44:32;;;;;;;36.65;19.02;;;6.40;99.90;;;;;;5049021;28;20049;-44
2022/03/15 01:46:59;;;;;;;40.70;19.20;;;6.30;99.90;;;;;;5051541;28;20127;-45
2022/03/15 01:49:25;;;;;;;36.97;19.33;;;6.20;99.90;;;;;;5047161;28;20051;-46
2022/03/15 01:51:51;;;;;;;46.75;21.27;;;6.20;99.90;;;;;;5050389;28;20045;-45
2022/03/15 01:54:20;;;;;;;35.80;20.48;;;6.30;99.90;;;;;;5051851;28;20461;-46
2022/03/15 01:56:46;;;;;;;42.92;19.98;;;6.20;99.90;;;;;;5051630;28;20041;-44
2022/03/15 01:59:13;;;;;;;44.10;20.75;;;6.20;99.90;;;;;;5051409;28;20041;-46
2022/03/15 02:01:41;;;;;;;49.28;21.08;;;6.10;99.90;;;;;;5051190;28;20083;-48
2022/03/15 02:04:08;;;;;;;41.95;21.35;;;6.10;99.90;;;;;;5051259;28;20488;-45
2022/03/15 02:06:38;;;;;;;40.35;20.42;;;6.00;99.90;;;;;;5051605;28;20975;-44
2022/03/15 02:09:14;;;;;;;45.05;22.48;;;6.10;99.90;;;;;;5051015;28;20037;-48
2022/03/15 02:11:42;;;;;;;44.13;20.92;;;5.90;99.90;;;;;;5051002;28;20116;-48
2022/03/15 02:14:07;;;;;;;44.25;22.05;;;5.90;99.90;;;;;;5033169;28;20040;-50
2022/03/15 02:16:33;;;;;;;40.72;21.17;;;5.80;99.90;;;;;;5051202;28;20370;-44
2022/03/15 02:19:01;;;;;;;42.88;21.75;;;5.80;99.90;;;;;;5050896;28;20064;-46
2022/03/15 02:21:28;;;;;;;37.45;20.27;;;5.80;99.90;;;;;;5049513;28;20475;-47
2022/03/15 02:23:54;;;;;;;42.50;21.33;;;5.90;99.90;;;;;;5049722;28;20024;-47
2022/03/15 02:26:20;;;;;;;39.25;20.48;;;5.80;99.90;;;;;;5050681;28;20137;-46
2022/03/15 02:28:46;;;;;;;37.97;20.92;;;5.70;99.90;;;;;;5050797;28;20048;-49
2022/03/15 02:31:12;;;;;;;38.58;20.42;;;5.80;99.90;;;;;;5050158;28;20488;-48
2022/03/15 02:33:37;;;;;;;44.95;21.75;;;5.60;99.90;;;;;;5047849;28;20049;-44
2022/03/15 02:36:03;;;;;;;37.42;20.35;;;5.60;99.90;;;;;;5049481;28;20033;-46
2022/03/15 02:38:29;;;;;;;38.70;20.67;;;5.70;99.90;;;;;;5047862;28;20675;-48
2022/03/15 02:40:55;;;;;;;38.35;20.02;;;5.60;99.90;;;;;;5050103;28;20056;-47
2022/03/15 02:43:21;;;;;;;39.42;19.95;;;5.50;99.90;;;;;;5049274;28;20045;-48
2022/03/15 02:45:47;;;;;;;41.67;19.48;;;5.30;99.90;;;;;;5050401;28;20033;-46
2022/03/15 02:48:12;;;;;;;35.78;19.75;;;5.30;99.90;;;;;;5050243;28;20067;-45
2022/03/15 02:50:38;;;;;;;40.95;18.65;;;5.40;99.90;;;;;;5050170;28;20029;-48
2022/03/15 02:53:03;;;;;;;36.53;19.00;;;5.10;99.90;;;;;;5050159;28;20048;-48
2022/03/15 02:55:32;;;;;;;38.88;18.45;;;5.40;99.90;;;;;;5050814;28;20040;-49
2022/03/15 02:57:58;;;;;;;39.92;20.05;;;5.10;99.90;;;;;;5049344;28;20472;-49
2022/03/15 03:00:24;;;;;;;39.75;20.13;;;5.50;99.90;;;;;;5050523;28;20063;-46
2022/03/15 03:02:50;;;;;;;38.75;19.83;;;5.00;99.90;;;;;;5048984;28;20050;-45
2022/03/15 03:05:16;;;;;;;36.47;18.77;;;5.00;99.90;;;;;;5048896;28;20041;-46
2022/03/15 03:07:43;;;;;;;39.88;19.75;;;5.20;99.90;;;;;;5050617;28;20068;-44
2022/03/15 03:10:09;;;;;;;39.20;19.52;;;5.20;99.90;;;;;;5050221;28;20044;-46
2022/03/15 03:12:36;;;;;;;40.20;19.40;;;5.20;99.90;;;;;;5049029;28;20061;-49
2022/03/15 03:15:02;;;;;;;34.47;19.50;;;5.20;99.90;;;;;;5050350;28;20036;-45
2022/03/15 03:17:28;;;;;;;40.05;19.17;;;5.20;99.90;;;;;;5049356;28;20045;-46
2022/03/15 03:19:54;;;;;;;34.47;18.52;;;5.20;99.90;;;;;;5044833;28;20106;-46
2022/03/15 03:22:20;;;;;;;36.20;18.50;;;4.90;99.90;;;;;;5032117;28;20468;-48
2022/03/15 03:24:46;;;;;;;35.88;19.08;;;5.00;99.90;;;;;;5050399;28;20080;-47
2022/03/15 03:27:13;;;;;;;38.85;18.20;;;4.90;99.90;;;;;;5050418;28;20033;-47
2022/03/15 03:29:40;;;;;;;35.05;18.15;;;4.90;99.90;;;;;;5050275;28;20492;-46
2022/03/15 03:32:07;;;;;;;42.88;18.88;;;5.20;99.90;;;;;;5050230;28;20033;-48
2022/03/15 03:34:34;;;;;;;39.97;18.92;;;5.00;99.90;;;;;;5049457;28;20108;-46
2022/03/15 03:36:59;;;;;;;38.03;19.10;;;5.10;99.90;;;;;;5047729;28;20044;-50
2022/03/15 03:39:25;;;;;;;30.55;18.17;;;5.10;99.90;;;;;;5048671;28;20049;-47
2022/03/15 03:41:51;;;;;;;35.42;17.90;;;4.80;99.90;;;;;;5050162;28;20040;-48
2022/03/15 03:44:17;;;;;;;34.92;19.08;;;5.00;99.90;;;;;;5049932;28;20094;-47
2022/03/15 03:46:42;;;;;;;36.22;17.70;;;4.80;99.90;;;;;;5050136;28;20043;-46
2022/03/15 03:49:08;;;;;;;35.65;18.40;;;4.80;99.90;;;;;;5050082;28;20037;-45
2022/03/15 03:51:34;;;;;;;35.20;17.75;;;5.00;99.90;;;;;;5050016;28;20041;-48
2022/03/15 03:53:59;;;;;;;31.90;17.48;;;4.70;99.90;;;;;;5050082;28;20048;-49
2022/03/15 03:56:25;;;;;;;37.90;18.75;;;4.70;99.90;;;;;;5049849;28;20357;-50
2022/03/15 03:58:51;;;;;;;34.80;18.75;;;4.90;99.90;;;;;;5048762;28;20465;-49
2022/03/15 04:01:16;;;;;;;35.28;19.20;;;4.80;99.90;;;;;;5050155;28;20029;-47
2022/03/15 04:03:42;;;;;;;41.70;19.95;;;4.80;99.90;;;;;;5049396;28;20049;-47
2022/03/15 04:06:11;;;;;;;37.53;20.00;;;4.80;99.90;;;;;;5034099;28;20045;-46
2022/03/15 04:08:37;;;;;;;31.88;18.08;;;4.90;99.90;;;;;;5050774;28;20049;-44
2022/03/15 04:11:03;;;;;;;33.03;19.52;;;5.00;99.90;;;;;;5052600;28;20540;-46
2022/03/15 04:13:28;;;;;;;35.78;18.80;;;4.80;99.90;;;;;;5052341;28;20121;-48
2022/03/15 04:15:54;;;;;;;36.40;18.08;;;4.80;99.90;;;;;;5053499;28;20083;-49
2022/03/15 04:18:20;;;;;;;37.38;18.92;;;4.70;99.90;;;;;;5053631;28;20037;-43
2022/03/15 04:20:45;;;;;;;36.30;19.73;;;4.80;99.90;;;;;;5053696;28;20036;-50
2022/03/15 04:23:11;;;;;;;42.65;20.60;;;4.90;99.90;;;;;;5053555;28;20045;-47
2022/03/15 04:25:38;;;;;;;40.35;20.30;;;4.90;99.90;;;;;;5053556;28;20067;-45
2022/03/15 04:28:04;;;;;;;40.60;20.75;;;5.10;99.90;;;;;;5053074;28;20041;-48
2022/03/15 04:30:31;;;;;;;41.85;21.17;;;5.20;99.90;;;;;;5053041;28;20045;-44
2022/03/15 04:32:58;;;;;;;43.17;21.55;;;5.00;99.90;;;;;;5051500;28;20048;-46
2022/03/15 04:35:24;;;;;;;38.30;21.40;;;4.90;99.90;;;;;;5050584;28;20033;-46
2022/03/15 04:37:54;;;;;;;44.25;21.52;;;5.10;99.90;;;;;;5053457;28;20032;-46
2022/03/15 04:40:20;;;;;;;46.80;23.35;;;5.00;99.90;;;;;;5052724;28;20124;-47
2022/03/15 04:42:45;;;;;;;42.47;22.35;;;5.20;99.90;;;;;;5052851;28;20056;-48
2022/03/15 04:45:12;;;;;;;43.50;24.05;;;5.00;99.90;;;;;;5051541;28;20052;-46
2022/03/15 04:47:38;;;;;;;46.20;24.98;;;5.20;99.90;;;;;;5053121;28;20153;-47
2022/03/15 04:50:05;;;;;;;44.83;23.67;;;5.30;99.90;;;;;;5046737;28;20157;-51
2022/03/15 04:52:30;;;;;;;44.45;24.75;;;5.10;99.90;;;;;;5052478;28;20071;-46
2022/03/15 04:54:56;;;;;;;50.20;24.65;;;5.00;99.90;;;;;;5052290;28;20037;-49
2022/03/15 04:57:22;;;;;;;49.17;24.73;;;5.00;99.90;;;;;;5052681;28;20357;-47
2022/03/15 04:59:47;;;;;;;48.72;23.67;;;5.00;99.90;;;;;;5051450;28;20385;-48
2022/03/15 05:02:13;;;;;;;48.05;23.45;;;5.30;99.90;;;;;;5052745;28;20132;-49
2022/03/15 05:04:39;;;;;;;46.55;24.92;;;5.30;99.90;;;;;;5052344;28;20040;-47
2022/03/15 05:07:05;;;;;;;46.72;24.42;;;5.10;99.90;;;;;;5052558;28;20045;-47
2022/03/15 05:09:30;;;;;;;47.47;24.45;;;5.00;99.90;;;;;;5050978;28;20039;-48
2022/03/15 05:11:56;;;;;;;45.70;23.98;;;5.30;99.90;;;;;;5033270;28;20036;-49
2022/03/15 05:14:22;;;;;;;45.65;25.15;;;5.30;99.90;;;;;;5046808;28;20041;-45
2022/03/15 05:16:47;;;;;;;47.42;25.58;;;5.00;99.90;;;;;;5052435;28;20037;-45
2022/03/15 05:19:13;;;;;;;50.03;25.92;;;5.10;99.90;;;;;;5052170;28;20037;-45
2022/03/15 05:21:39;;;;;;;52.03;27.08;;;5.30;99.90;;;;;;5052409;28;20043;-48
2022/03/15 05:24:05;;;;;;;51.97;26.95;;;5.00;99.90;;;;;;5051164;28;20074;-46
2022/03/15 05:26:31;;;;;;;52.75;26.98;;;5.30;99.90;;;;;;5051662;28;20419;-46
2022/03/15 05:28:56;;;;;;;53.88;26.77;;;5.10;99.90;;;;;;5052292;28;20091;-49
2022/03/15 05:31:23;;;;;;;54.85;27.67;;;5.30;99.90;;;;;;5051924;28;20029;-47
2022/03/15 05:33:49;;;;;;;55.45;30.45;;;5.10;99.90;;;;;;5046419;28;20044;-48
2022/03/15 05:36:15;;;;;;;57.13;30.25;;;5.20;99.90;;;;;;5051743;28;20041;-45
2022/03/15 05:38:42;;;;;;;59.03;30.88;;;5.10;99.90;;;;;;5051711;28;20168;-45
2022/03/15 05:41:08;;;;;;;57.78;30.42;;;5.40;99.90;;;;;;5051547;28;20047;-46
2022/03/15 05:43:35;;;;;;;55.50;29.40;;;5.10;99.90;;;;;;5051700;28;20102;-47
2022/03/15 05:46:02;;;;;;;55.95;31.05;;;5.30;99.90;;;;;;5051941;28;20033;-45
2022/03/15 05:48:28;;;;;;;54.70;31.17;;;5.10;99.90;;;;;;5051830;28;20123;-48
2022/03/15 05:50:53;;;;;;;62.15;31.50;;;5.30;99.90;;;;;;5032921;28;20120;-46
2022/03/15 05:53:19;;;;;;;59.55;31.42;;;5.20;99.90;;;;;;5050032;28;20152;-47
2022/03/15 05:55:45;;;;;;;59.38;32.45;;;5.40;99.90;;;;;;5051732;28;20040;-48
2022/03/15 05:58:11;;;;;;;60.50;32.75;;;5.30;99.90;;;;;;5050072;28;20037;-47
2022/03/15 06:00:37;;;;;;;64.10;33.92;;;5.50;99.90;;;;;;5050914;28;20029;-48
2022/03/15 06:03:03;;;;;;;59.03;32.60;;;5.30;99.90;;;;;;5050234;28;20048;-45
2022/03/15 06:05:30;;;;;;;62.38;34.20;;;5.20;99.90;;;;;;5051037;28;20120;-46
2022/03/15 06:07:56;;;;;;;64.40;33.25;;;5.40;99.90;;;;;;5051578;28;20075;-48
2022/03/15 06:10:23;;;;;;;62.90;34.25;;;5.40;99.90;;;;;;5051615;28;20459;-47
2022/03/15 06:12:49;;;;;;;65.35;33.97;;;5.20;99.90;;;;;;5051115;28;20622;-47
2022/03/15 06:15:15;;;;;;;64.93;33.13;;;5.50;99.90;;;;;;5051358;28;20415;-47
2022/03/15 06:17:52;;;;;;;64.22;32.13;;;5.40;99.90;;;;;;5051190;28;20071;-46
2022/03/15 06:20:19;;;;;;;58.47;32.05;;;5.60;99.90;;;;;;5046437;28;20031;-44
2022/03/15 06:22:46;;;;;;;67.65;33.72;;;5.30;99.90;;;;;;5051306;28;20512;-47
2022/03/15 06:25:13;;;;;;;62.33;32.58;;;5.50;99.90;;;;;;5051011;28;20068;-47
2022/03/15 06:27:39;;;;;;;66.65;34.85;;;5.60;99.90;;;;;;5051539;28;20064;-46
2022/03/15 06:30:06;;;;;;;61.05;32.88;;;5.60;99.90;;;;;;5050855;28;20033;-46
2022/03/15 06:32:33;;;;;;;60.90;33.60;;;5.40;99.90;;;;;;5050726;28;20125;-46
2022/03/15 06:34:59;;;;;;;62.95;33.67;;;5.40;99.90;;;;;;5050333;28;20033;-44
2022/03/15 06:37:28;;;;;;;67.25;34.95;;;5.50;99.90;;;;;;5050882;28;20068;-46
2022/03/15 06:39:55;;;;;;;62.30;33.83;;;5.60;99.90;;;;;;5050577;28;20544;-46
2022/03/15 06:42:22;;;;;;;60.95;33.40;;;5.50;99.90;;;;;;5050808;28;20136;-44
2022/03/15 06:44:48;;;;;;;60.95;33.78;;;5.90;99.90;;;;;;5050547;28;20097;-45
2022/03/15 06:47:14;;;;;;;58.60;32.70;;;5.90;99.90;;;;;;5050925;28;20492;-46
2022/03/15 06:49:40;;;;;;;62.20;32.65;;;5.60;99.90;;;;;;5050338;28;20040;-46
2022/03/15 06:52:07;;;;;;;58.35;32.17;;;5.70;99.90;;;;;;5050654;28;20036;-46
2022/03/15 06:54:32;;;;;;;59.83;32.65;;;5.80;99.90;;;;;;5050547;28;20142;-47
2022/03/15 06:56:58;;;;;;;58.78;31.95;;;5.80;99.90;;;;;;5050625;28;20603;-47
2022/03/15 06:59:24;;;;;;;55.33;31.30;;;5.70;99.90;;;;;;5050672;28;20037;-47
2022/03/15 07:01:50;;;;;;;57.72;31.30;;;6.00;99.90;;;;;;5050331;28;20041;-46
2022/03/15 07:04:17;;;;;;;57.08;31.70;;;6.10;99.90;;;;;;5047307;28;20037;-47
2022/03/15 07:06:43;;;;;;;52.47;29.73;;;5.90;99.90;;;;;;5049062;28;20119;-48
2022/03/15 07:09:09;;;;;;;50.17;29.20;;;6.10;99.90;;;;;;5046274;28;20087;-46
2022/03/15 07:11:35;;;;;;;53.90;29.65;;;6.20;99.90;;;;;;5048583;28;20049;-46
2022/03/15 07:14:03;;;;;;;49.53;28.02;;;6.10;99.90;;;;;;5049123;28;20067;-48
2022/03/15 07:16:28;;;;;;;43.85;27.88;;;6.30;99.90;;;;;;5050204;28;20114;-48
2022/03/15 07:18:55;;;;;;;48.65;28.95;;;6.10;99.90;;;;;;5050356;28;20041;-48
2022/03/15 07:21:21;;;;;;;47.15;27.85;;;6.20;99.90;;;;;;5050403;28;20045;-47
2022/03/15 07:23:47;;;;;;;57.90;29.25;;;6.10;99.90;;;;;;5048961;28;20431;-46
2022/03/15 07:26:13;;;;;;;48.97;28.08;;;6.40;99.90;;;;;;5050339;28;20538;-44
2022/03/15 07:28:38;;;;;;;48.08;28.30;;;6.40;99.90;;;;;;5048941;28;20075;-46
2022/03/15 07:31:05;;;;;;;51.85;27.58;;;6.40;99.90;;;;;;5049843;28;20400;-45
2022/03/15 07:33:31;;;;;;;43.05;27.38;;;6.40;99.90;;;;;;5047688;28;20472;-45
2022/03/15 07:35:58;;;;;;;47.63;27.63;;;6.40;99.90;;;;;;5049483;28;20366;-44
2022/03/15 07:38:24;;;;;;;50.47;28.33;;;6.30;99.90;;;;;;5047921;28;20037;-45
2022/03/15 07:40:52;;;;;;;43.22;27.52;;;6.50;99.90;;;;;;5049628;28;20507;-46
2022/03/15 07:43:19;;;;;;;45.40;26.42;;;6.60;99.90;;;;;;5047043;28;20056;-45
2022/03/15 07:45:45;;;;;;;47.05;27.30;;;6.70;99.90;;;;;;5049628;28;20132;-48
2022/03/15 07:48:11;;;;;;;44.90;27.23;;;6.40;99.90;;;;;;5049268;28;20120;-50
2022/03/15 07:50:37;;;;;;;49.97;28.23;;;6.50;99.90;;;;;;5046034;28;20033;-46
2022/03/15 07:53:03;;;;;;;45.53;26.67;;;6.40;99.90;;;;;;5049540;28;20041;-47
2022/03/15 07:55:29;;;;;;;46.92;27.08;;;6.40;99.90;;;;;;5049634;28;20480;-46
2022/03/15 07:57:54;;;;;;;51.10;28.92;;;6.50;99.90;;;;;;5046101;28;20051;-51
2022/03/15 08:00:20;;;;;;;46.10;28.05;;;6.60;99.90;;;;;;5045417;28;20041;-48
2022/03/15 08:02:46;;;;;;;45.65;28.38;;;6.60;99.90;;;;;;5041161;28;20098;-47
2022/03/15 08:05:11;;;;;;;46.78;27.73;;;6.80;99.90;;;;;;5038639;28;20029;-46
2022/03/15 08:07:37;;;;;;;44.53;26.70;;;6.80;99.90;;;;;;5039170;28;20108;-48
2022/03/15 08:10:08;;;;;;;42.22;26.15;;;6.70;99.90;;;;;;5037114;28;20048;-47
2022/03/15 08:12:34;;;;;;;45.67;26.77;;;6.80;99.90;;;;;;5035692;28;20083;-47
2022/03/15 08:15:00;;;;;;;47.72;27.13;;;6.70;99.90;;;;;;5037725;28;20041;-46
2022/03/15 08:17:25;;;;;;;42.60;25.88;;;6.90;99.90;;;;;;5041228;28;20043;-46
2022/03/15 08:19:52;;;;;;;43.25;27.25;;;6.90;99.90;;;;;;5040530;28;20072;-48
2022/03/15 08:22:18;;;;;;;44.70;25.83;;;6.70;99.90;;;;;;5040900;28;22877;-47
2022/03/15 08:24:43;;;;;;;41.28;24.70;;;7.00;99.90;;;;;;5040361;28;20029;-48
2022/03/15 08:27:09;;;;;;;43.58;25.65;;;6.80;99.90;;;;;;5039539;28;20048;-48
2022/03/15 08:29:35;;;;;;;40.42;25.48;;;6.80;99.90;;;;;;5038145;28;20392;-47
2022/03/15 08:32:01;;;;;;;40.20;24.85;;;6.90;99.90;;;;;;5039842;28;20030;-47
2022/03/15 08:34:26;;;;;;;45.13;25.27;;;7.00;99.90;;;;;;5037252;28;20547;-48
2022/03/15 08:36:53;;;;;;;40.92;26.38;;;7.50;99.90;;;;;;5040747;28;20036;-47
2022/03/15 08:39:22;;;;;;;41.80;26.05;;;6.90;99.90;;;;;;5040343;28;20099;-45
2022/03/15 08:41:50;;;;;;;42.20;25.38;;;7.20;99.90;;;;;;5040527;28;20087;-47
2022/03/15 08:44:22;;;;;;;50.20;28.35;;;7.50;99.90;;;;;;5040036;28;20074;-49
2022/03/15 08:46:51;;;;;;;43.05;26.83;;;7.20;99.90;;;;;;5039166;28;20086;-47
2022/03/15 08:49:19;;;;;;;46.35;27.80;;;7.10;99.90;;;;;;5041339;28;20066;-47
2022/03/15 08:51:46;;;;;;;43.03;27.33;;;7.20;99.90;;;;;;5043803;28;20048;-45
2022/03/15 08:54:12;;;;;;;42.50;27.30;;;7.00;99.90;;;;;;5044413;28;20028;-47
2022/03/15 08:56:41;;;;;;;45.20;27.48;;;7.20;99.90;;;;;;5044411;28;20048;-46
2022/03/15 08:59:12;;;;;;;44.95;29.33;;;7.20;99.90;;;;;;5044090;28;20484;-50
2022/03/15 09:01:38;;;;;;;46.85;28.90;;;7.40;99.90;;;;;;5043563;28;20033;-50
2022/03/15 09:04:04;;;;;;;40.88;27.00;;;7.20;99.90;;;;;;5043573;28;20087;-46
2022/03/15 09:06:31;;;;;;;47.17;27.98;;;7.10;99.90;;;;;;5043961;28;20117;-48
2022/03/15 09:08:59;;;;;;;43.95;27.40;;;7.30;99.90;;;;;;5044005;28;20044;-48
2022/03/15 09:11:26;;;;;;;44.15;27.13;;;7.20;99.90;;;;;;5043035;28;20040;-46
2022/03/15 09:13:51;;;;;;;45.63;27.33;;;7.30;99.90;;;;;;5042206;28;20521;-48
2022/03/15 09:16:17;;;;;;;40.97;27.75;;;7.50;99.90;;;;;;5041126;28;20068;-49
2022/03/15 09:18:43;;;;;;;43.47;28.40;;;7.50;99.90;;;;;;5040987;28;20037;-49
2022/03/15 09:21:09;;;;;;;41.28;24.83;;;7.40;99.90;;;;;;5042485;28;20044;-47
2022/03/15 09:23:35;;;;;;;43.83;26.60;;;7.40;99.90;;;;;;5042109;28;20512;-47
2022/03/15 09:26:01;;;;;;;44.70;25.98;;;7.60;99.90;;;;;;5042227;28;20044;-46
2022/03/15 09:28:27;;;;;;;37.47;25.23;;;7.60;99.90;;;;;;5042780;28;20046;-45
2022/03/15 09:30:53;;;;;;;39.67;25.58;;;7.60;99.90;;;;;;5041961;28;20033;-47
2022/03/15 09:33:19;;;;;;;40.35;25.55;;;7.50;99.90;;;;;;5041209;28;20476;-47
2022/03/15 09:35:45;;;;;;;42.75;24.70;;;7.70;99.90;;;;;;5040464;28;20427;-48
2022/03/15 09:38:11;;;;;;;42.30;24.48;;;7.60;99.90;;;;;;5040737;28;20167;-48
2022/03/15 09:40:37;;;;;;;36.33;24.45;;;7.60;99.90;;;;;;5041101;28;20118;-46
2022/03/15 09:43:06;;;;;;;39.30;23.58;;;7.90;99.90;;;;;;5042486;28;20037;-49
2022/03/15 09:45:33;;;;;;;39.08;24.15;;;7.90;99.90;;;;;;5041208;28;20044;-48
2022/03/15 09:48:02;;;;;;;37.70;23.02;;;8.00;99.90;;;;;;5041408;28;20392;-49
2022/03/15 09:50:28;;;;;;;36.35;23.52;;;7.90;99.90;;;;;;5037550;28;20497;-45
2022/03/15 09:52:56;;;;;;;39.78;24.05;;;7.90;99.90;;;;;;5039765;28;20045;-48
2022/03/15 09:55:22;;;;;;;36.95;23.30;;;8.20;99.90;;;;;;5041145;28;20036;-48
2022/03/15 09:57:48;;;;;;;37.40;22.98;;;8.00;99.90;;;;;;5041890;28;20040;-45
2022/03/15 10:00:16;;;;;;;35.65;23.42;;;8.10;99.90;;;;;;5040079;28;20041;-50
2022/03/15 10:02:44;;;;;;;38.45;23.52;;;8.10;99.90;;;;;;5041166;28;20037;-49
2022/03/15 10:05:10;;;;;;;33.67;22.02;;;8.20;99.90;;;;;;5039987;28;20041;-47
2022/03/15 10:07:37;;;;;;;35.88;23.77;;;8.30;99.90;;;;;;5041286;28;20033;-47
2022/03/15 10:10:07;;;;;;;38.95;23.73;;;8.30;99.90;;;;;;5040515;28;20029;-47
2022/03/15 10:12:34;;;;;;;31.38;21.65;;;8.30;99.90;;;;;;5038531;28;20334;-46
2022/03/15 10:15:14;;;;;;;38.22;23.38;;;8.30;99.90;;;;;;5040477;28;20481;-45
2022/03/15 10:17:55;;;;;;;40.05;22.25;;;8.40;99.90;;;;;;5041993;28;20033;-50
2022/03/15 10:20:28;;;;;;;36.75;22.80;;;8.60;99.90;;;;;;5041446;28;20036;-47
2022/03/15 10:22:57;;;;;;;39.10;22.45;;;8.60;99.90;;;;;;5040463;28;20083;-47
2022/03/15 10:25:24;;;;;;;34.38;21.23;;;8.70;99.90;;;;;;5041291;28;20041;-45
2022/03/15 10:27:52;;;;;;;34.28;21.92;;;8.60;99.90;;;;;;5039382;28;20436;-48
2022/03/15 10:30:17;;;;;;;31.17;20.00;;;8.60;99.90;;;;;;5039748;28;20037;-47
2022/03/15 10:32:43;;;;;;;36.33;21.58;;;8.80;99.90;;;;;;5040252;28;20037;-48
2022/03/15 10:35:09;;;;;;;35.25;20.95;;;8.90;99.90;;;;;;5038873;28;20052;-49
2022/03/15 10:37:38;;;;;;;31.83;20.67;;;8.90;99.90;;;;;;5036128;28;20079;-48
2022/03/15 10:40:04;;;;;;;33.40;20.23;;;9.20;99.90;;;;;;5044870;28;20107;-51
2022/03/15 10:42:29;;;;;;;33.97;19.83;;;9.30;99.90;;;;;;5048712;28;20202;-47
2022/03/15 10:44:57;;;;;;;31.05;19.17;;;9.30;99.90;;;;;;5048281;28;20104;-45
2022/03/15 10:47:23;;;;;;;30.70;19.25;;;9.40;99.90;;;;;;5048288;28;20064;-47
2022/03/15 10:49:54;;;;;;;34.58;19.63;;;9.40;99.90;;;;;;5045343;28;20514;-50
2022/03/15 10:52:40;;;;;;;34.45;19.75;;;9.30;99.90;;;;;;5049592;28;20037;-49
2022/03/15 10:55:18;;;;;;;32.40;18.60;;;9.40;99.90;;;;;;5043270;28;20032;-49
2022/03/15 10:57:48;;;;;;;28.00;17.85;;;9.50;99.90;;;;;;5049566;28;20162;-48
2022/03/15 11:00:15;;;;;;;30.40;18.40;;;9.50;99.90;;;;;;5048723;28;20037;-48
2022/03/15 11:02:47;;;;;;;32.75;17.48;;;9.60;99.90;;;;;;5043104;28;20127;-50
2022/03/15 11:05:23;;;;;;;28.80;18.20;;;9.60;99.90;;;;;;5044380;28;20495;-49
2022/03/15 11:07:49;;;;;;;26.92;16.35;;;9.60;99.90;;;;;;5045386;28;20085;-49
2022/03/15 11:10:15;;;;;;;30.13;17.92;;;9.80;99.90;;;;;;5049705;28;20045;-50
2022/03/15 11:12:58;;;;;;;33.53;17.30;;;9.80;99.90;;;;;;5048495;28;20044;-48
2022/03/15 11:15:30;;;;;;;30.10;16.92;;;10.00;99.90;;;;;;5050456;28;20120;-49
2022/03/15 11:18:01;;;;;;;30.88;18.40;;;9.90;99.90;;;;;;5049497;28;20044;-49
2022/03/15 11:20:30;;;;;;;23.90;16.17;;;9.90;99.90;;;;;;5050061;28;20044;-49
2022/03/15 11:23:00;;;;;;;25.52;16.70;;;10.10;99.90;;;;;;5047896;28;20041;-48
2022/03/15 11:25:37;;;;;;;28.35;15.77;;;10.00;99.90;;;;;;5048908;28;20067;-50
2022/03/15 11:28:05;;;;;;;24.40;15.45;;;10.10;99.90;;;;;;5049122;28;20049;-50
2022/03/15 11:30:33;;;;;;;24.80;16.35;;;10.10;99.90;;;;;;5049785;28;20039;-46
2022/03/15 11:33:01;;;;;;;26.15;15.55;;;10.10;99.90;;;;;;5049599;28;20060;-50
2022/03/15 11:35:29;;;;;;;22.85;15.50;;;10.20;99.90;;;;;;5045987;28;20041;-49
2022/03/15 11:37:56;;;;;;;27.45;16.02;;;10.20;99.90;;;;;;5049915;28;20037;-47
2022/03/15 11:40:21;;;;;;;28.73;16.20;;;10.30;99.90;;;;;;5049713;28;20071;-50
2022/03/15 11:42:57;;;;;;;25.38;14.40;;;10.40;99.90;;;;;;5047624;28;20053;-49
2022/03/15 11:45:46;;;;;;;25.05;14.35;;;10.40;99.90;;;;;;5047913;28;20496;-49
2022/03/15 11:48:18;;;;;;;24.17;15.07;;;10.50;99.90;;;;;;5032321;28;20053;-48
2022/03/15 11:50:56;;;;;;;23.17;14.98;;;10.50;99.90;;;;;;5040630;28;20073;-48
2022/03/15 11:53:38;;;;;;;30.17;15.57;;;10.60;99.90;;;;;;5039588;28;20380;-48
2022/03/15 11:56:16;;;;;;;24.75;14.40;;;10.70;99.90;;;;;;5041309;28;20048;-48
2022/03/15 11:58:52;;;;;;;23.88;15.23;;;10.80;99.90;;;;;;5042297;28;20091;-48
2022/03/15 12:01:19;;;;;;;23.60;14.68;;;10.80;99.90;;;;;;5041273;28;20041;-48
2022/03/15 12:03:51;;;;;;;23.05;14.30;;;10.90;99.90;;;;;;5038956;28;20400;-52
2022/03/15 12:06:24;;;;;;;22.55;14.15;;;11.00;99.90;;;;;;5058253;28;21050;-48
2022/03/15 12:08:53;;;;;;;24.35;12.93;;;10.90;99.90;;;;;;5041991;28;20048;-51
2022/03/15 12:11:46;;;;;;;22.80;13.77;;;10.90;99.90;;;;;;5040721;28;20033;-47
2022/03/15 12:14:17;;;;;;;21.58;12.82;;;11.00;99.90;;;;;;5039369;28;20079;-46
2022/03/15 12:16:53;;;;;;;22.48;12.55;;;11.10;99.90;;;;;;5040402;28;20029;-48
2022/03/15 12:19:39;;;;;;;25.88;14.25;;;11.10;99.90;;;;;;5043355;28;20445;-46
2022/03/15 12:22:08;;;;;;;23.88;12.68;;;11.20;99.90;;;;;;5036291;28;20720;-47
2022/03/15 12:24:39;;;;;;;23.90;13.55;;;11.40;99.90;;;;;;5042035;28;20041;-46
2022/03/15 12:27:07;;;;;;;22.50;13.73;;;11.50;99.90;;;;;;5048221;28;20037;-50
2022/03/15 12:29:34;;;;;;;23.42;13.48;;;11.70;99.90;;;;;;5052135;28;20048;-47
2022/03/15 12:32:10;;;;;;;22.48;12.73;;;12.50;99.90;;;;;;5052399;28;20128;-49
2022/03/15 12:34:36;;;;;;;22.05;13.02;;;12.80;99.90;;;;;;5052283;28;20036;-48
2022/03/15 12:37:02;;;;;;;20.85;12.57;;;13.10;99.90;;;;;;5052183;28;20037;-48